sensor_id;sensor_type;location;lat;lon;timestamp;pressure;altitude;pressure_sealevel;temperature;humidity
46955;BME280;32708;51.212;6.788;2024-01-15T00:00:57;99794.38;;;2.41;100.00
46955;BME280;32708;51.212;6.788;2024-01-15T00:03:23;99796.44;;;2.26;100.00
46955;BME280;32708;51.212;6.788;2024-01-15T00:05:49;99807.28;;;2.44;100.00
46955;BME280;32708;51.212;6.788;2024-01-15T00:08:15;99805.66;;;2.19;100.00
46955;BME280;32708;51.212;6.788;2024-01-15T00:10:41;99805.09;;;2.46;100.00
46955;BME280;32708;51.212;6.788;2024-01-15T00:13:08;99800.97;;;2.54;100.00
46955;BME280;32708;51.212;6.788;2024-01-15T00:15:34;99797.16;;;2.55;100.00
46955;BME280;32708;51.212;6.788;2024-01-15T00:18:00;99798.06;;;2.27;100.00
46955;BME280;32708;51.212;6.788;2024-01-15T00:20:26;99794.00;;;2.29;100.00
46955;BME280;32708;51.212;6.788;2024-01-15T00:22:52;99792.91;;;2.30;100.00
46955;BME280;32708;51.212;6.788;2024-01-15T00:25:18;99794.06;;;2.24;100.00
46955;BME280;32708;51.212;6.788;2024-01-15T00:27:45;99787.28;;;2.51;100.00
46955;BME280;32708;51.212;6.788;2024-01-15T00:30:11;99778.84;;;2.33;100.00
46955;BME280;32708;51.212;6.788;2024-01-15T00:32:37;99781.34;;;2.48;100.00
46955;BME280;32708;51.212;6.788;2024-01-15T00:35:04;99781.53;;;2.57;100.00
46955;BME280;32708;51.212;6.788;2024-01-15T00:37:31;99785.38;;;2.27;100.00
46955;BME280;32708;51.212;6.788;2024-01-15T00:39:57;99777.19;;;2.37;100.00
46955;BME280;32708;51.212;6.788;2024-01-15T00:42:23;99770.25;;;2.31;100.00
46955;BME280;32708;51.212;6.788;2024-01-15T00:44:49;99766.09;;;2.82;100.00
46955;BME280;32708;51.212;6.788;2024-01-15T00:47:18;99746.72;;;2.61;100.00
46955;BME280;32708;51.212;6.788;2024-01-15T00:49:44;99756.25;;;2.53;100.00
46955;BME280;32708;51.212;6.788;2024-01-15T00:52:11;99752.06;;;2.42;100.00
46955;BME280;32708;51.212;6.788;2024-01-15T00:54:37;99758.63;;;2.36;100.00
46955;BME280;32708;51.212;6.788;2024-01-15T00:57:04;99765.78;;;2.45;100.00
46955;BME280;32708;51.212;6.788;2024-01-15T00:59:30;99754.19;;;2.45;100.00
46955;BME280;32708;51.212;6.788;2024-01-15T01:01:56;99758.66;;;2.55;100.00
46955;BME280;32708;51.212;6.788;2024-01-15T01:04:22;99755.25;;;2.87;100.00
46955;BME280;32708;51.212;6.788;2024-01-15T01:06:48;99754.81;;;2.80;100.00
46955;BME280;32708;51.212;6.788;2024-01-15T01:09:14;99750.34;;;2.70;100.00
46955;BME280;32708;51.212;6.788;2024-01-15T01:11:41;99743.44;;;2.83;100.00
46955;BME280;32708;51.212;6.788;2024-01-15T01:14:07;99742.91;;;2.62;100.00
46955;BME280;32708;51.212;6.788;2024-01-15T01:16:33;99742.09;;;2.42;100.00
46955;BME280;32708;51.212;6.788;2024-01-15T01:19:07;99746.22;;;2.59;100.00
46955;BME280;32708;51.212;6.788;2024-01-15T01:21:34;99741.75;;;2.68;100.00
46955;BME280;32708;51.212;6.788;2024-01-15T01:24:00;99754.34;;;2.54;100.00
46955;BME280;32708;51.212;6.788;2024-01-15T01:26:26;99740.72;;;2.64;100.00
46955;BME280;32708;51.212;6.788;2024-01-15T01:28:53;99736.00;;;2.74;100.00
46955;BME280;32708;51.212;6.788;2024-01-15T01:31:19;99736.97;;;2.65;100.00
46955;BME280;32708;51.212;6.788;2024-01-15T01:33:45;99739.94;;;2.63;100.00
46955;BME280;32708;51.212;6.788;2024-01-15T01:36:11;99745.09;;;2.79;100.00
46955;BME280;32708;51.212;6.788;2024-01-15T01:38:40;99734.78;;;2.67;100.00
46955;BME280;32708;51.212;6.788;2024-01-15T01:41:06;99734.63;;;2.96;100.00
46955;BME280;32708;51.212;6.788;2024-01-15T01:43:33;99730.81;;;2.78;100.00
46955;BME280;32708;51.212;6.788;2024-01-15T01:46:01;99732.53;;;2.74;100.00
46955;BME280;32708;51.212;6.788;2024-01-15T01:48:31;99728.56;;;2.47;100.00
46955;BME280;32708;51.212;6.788;2024-01-15T01:51:02;99733.09;;;2.71;100.00
46955;BME280;32708;51.212;6.788;2024-01-15T01:53:34;99739.34;;;3.04;100.00
46955;BME280;32708;51.212;6.788;2024-01-15T01:56:03;99729.59;;;2.70;100.00
46955;BME280;32708;51.212;6.788;2024-01-15T01:58:32;99735.00;;;2.52;100.00
46955;BME280;32708;51.212;6.788;2024-01-15T02:00:59;99739.81;;;2.73;100.00
46955;BME280;32708;51.212;6.788;2024-01-15T02:03:30;99736.59;;;2.90;100.00
46955;BME280;32708;51.212;6.788;2024-01-15T02:06:00;99735.41;;;3.15;100.00
46955;BME280;32708;51.212;6.788;2024-01-15T02:08:27;99742.66;;;2.82;100.00
46955;BME280;32708;51.212;6.788;2024-01-15T02:10:53;99749.63;;;2.83;100.00
46955;BME280;32708;51.212;6.788;2024-01-15T02:13:20;99746.66;;;3.03;100.00
46955;BME280;32708;51.212;6.788;2024-01-15T02:15:47;99754.38;;;2.91;100.00
46955;BME280;32708;51.212;6.788;2024-01-15T02:18:13;99755.59;;;2.99;100.00
46955;BME280;32708;51.212;6.788;2024-01-15T02:20:39;99754.72;;;2.85;100.00
46955;BME280;32708;51.212;6.788;2024-01-15T02:23:09;99739.03;;;3.24;100.00
46955;BME280;32708;51.212;6.788;2024-01-15T02:25:47;99732.72;;;3.15;100.00
46955;BME280;32708;51.212;6.788;2024-01-15T02:28:17;99741.00;;;3.00;100.00
46955;BME280;32708;51.212;6.788;2024-01-15T02:30:44;99733.78;;;3.14;100.00
46955;BME280;32708;51.212;6.788;2024-01-15T02:33:11;99735.59;;;2.86;100.00
46955;BME280;32708;51.212;6.788;2024-01-15T02:35:38;99728.19;;;3.11;100.00
46955;BME280;32708;51.212;6.788;2024-01-15T02:38:08;99732.78;;;2.91;100.00
46955;BME280;32708;51.212;6.788;2024-01-15T02:40:35;99742.66;;;3.01;100.00
46955;BME280;32708;51.212;6.788;2024-01-15T02:43:01;99738.84;;;3.02;100.00
46955;BME280;32708;51.212;6.788;2024-01-15T02:45:28;99744.00;;;2.98;100.00
46955;BME280;32708;51.212;6.788;2024-01-15T02:47:54;99735.72;;;2.95;100.00
46955;BME280;32708;51.212;6.788;2024-01-15T02:50:20;99742.66;;;3.01;100.00
46955;BME280;32708;51.212;6.788;2024-01-15T02:52:46;99741.19;;;2.90;100.00
46955;BME280;32708;51.212;6.788;2024-01-15T02:55:12;99745.41;;;2.96;100.00
46955;BME280;32708;51.212;6.788;2024-01-15T02:57:38;99733.41;;;2.88;100.00
46955;BME280;32708;51.212;6.788;2024-01-15T03:00:05;99738.72;;;2.93;100.00
46955;BME280;32708;51.212;6.788;2024-01-15T03:02:36;99742.03;;;3.04;100.00
46955;BME280;32708;51.212;6.788;2024-01-15T03:05:06;99736.59;;;2.90;100.00
46955;BME280;32708;51.212;6.788;2024-01-15T03:07:34;99744.75;;;2.85;100.00
46955;BME280;32708;51.212;6.788;2024-01-15T03:10:01;99746.44;;;2.81;100.00
46955;BME280;32708;51.212;6.788;2024-01-15T03:12:27;99748.16;;;2.91;100.00
46955;BME280;32708;51.212;6.788;2024-01-15T03:14:54;99735.28;;;2.88;100.00
46955;BME280;32708;51.212;6.788;2024-01-15T03:17:20;99728.53;;;3.23;100.00
46955;BME280;32708;51.212;6.788;2024-01-15T03:19:46;99726.69;;;3.37;100.00
46955;BME280;32708;51.212;6.788;2024-01-15T03:22:13;99724.06;;;3.32;100.00
46955;BME280;32708;51.212;6.788;2024-01-15T03:24:39;99733.94;;;3.23;100.00
46955;BME280;32708;51.212;6.788;2024-01-15T03:27:06;99729.84;;;3.07;100.00
46955;BME280;32708;51.212;6.788;2024-01-15T03:29:32;99729.66;;;3.03;100.00
46955;BME280;32708;51.212;6.788;2024-01-15T03:31:59;99735.63;;;3.19;100.00
46955;BME280;32708;51.212;6.788;2024-01-15T03:34:25;99742.09;;;3.18;100.00
46955;BME280;32708;51.212;6.788;2024-01-15T03:36:51;99728.38;;;3.33;100.00
46955;BME280;32708;51.212;6.788;2024-01-15T03:39:17;99731.34;;;2.80;100.00
46955;BME280;32708;51.212;6.788;2024-01-15T03:41:43;99724.56;;;3.01;100.00
46955;BME280;32708;51.212;6.788;2024-01-15T03:44:10;99727.53;;;3.19;100.00
46955;BME280;32708;51.212;6.788;2024-01-15T03:46:36;99732.28;;;2.89;100.00
46955;BME280;32708;51.212;6.788;2024-01-15T03:49:02;99726.97;;;2.84;100.00
46955;BME280;32708;51.212;6.788;2024-01-15T03:51:28;99734.50;;;2.87;100.00
46955;BME280;32708;51.212;6.788;2024-01-15T03:53:54;99735.94;;;2.80;100.00
46955;BME280;32708;51.212;6.788;2024-01-15T03:56:20;99734.38;;;2.92;100.00
46955;BME280;32708;51.212;6.788;2024-01-15T03:58:47;99725.66;;;3.33;100.00
46955;BME280;32708;51.212;6.788;2024-01-15T04:01:13;99720.94;;;3.25;100.00
46955;BME280;32708;51.212;6.788;2024-01-15T04:03:39;99708.72;;;3.14;100.00
46955;BME280;32708;51.212;6.788;2024-01-15T04:06:05;99710.53;;;3.18;100.00
46955;BME280;32708;51.212;6.788;2024-01-15T04:08:31;99704.13;;;3.14;100.00
46955;BME280;32708;51.212;6.788;2024-01-15T04:10:58;99704.56;;;3.35;100.00
46955;BME280;32708;51.212;6.788;2024-01-15T04:13:24;99702.25;;;3.15;100.00
46955;BME280;32708;51.212;6.788;2024-01-15T04:15:50;99693.81;;;3.49;100.00
46955;BME280;32708;51.212;6.788;2024-01-15T04:18:17;99681.63;;;3.38;100.00
46955;BME280;32708;51.212;6.788;2024-01-15T04:20:46;99693.13;;;3.11;100.00
46955;BME280;32708;51.212;6.788;2024-01-15T04:23:12;99687.94;;;3.14;100.00
46955;BME280;32708;51.212;6.788;2024-01-15T04:25:38;99685.09;;;3.24;100.00
46955;BME280;32708;51.212;6.788;2024-01-15T04:28:12;99678.59;;;3.25;100.00
46955;BME280;32708;51.212;6.788;2024-01-15T04:30:38;99673.91;;;3.31;100.00
46955;BME280;32708;51.212;6.788;2024-01-15T04:33:04;99676.16;;;3.10;100.00
46955;BME280;32708;51.212;6.788;2024-01-15T04:35:31;99675.16;;;3.20;100.00
46955;BME280;32708;51.212;6.788;2024-01-15T04:37:58;99658.31;;;3.42;100.00
46955;BME280;32708;51.212;6.788;2024-01-15T04:40:25;99670.53;;;3.07;100.00
46955;BME280;32708;51.212;6.788;2024-01-15T04:42:54;99668.25;;;3.14;100.00
46955;BME280;32708;51.212;6.788;2024-01-15T04:45:20;99662.69;;;3.24;100.00
46955;BME280;32708;51.212;6.788;2024-01-15T04:47:49;99667.94;;;3.01;100.00
46955;BME280;32708;51.212;6.788;2024-01-15T04:50:15;99669.88;;;3.15;100.00
46955;BME280;32708;51.212;6.788;2024-01-15T04:52:41;99668.19;;;3.19;100.00
46955;BME280;32708;51.212;6.788;2024-01-15T04:55:08;99666.25;;;3.06;100.00
46955;BME280;32708;51.212;6.788;2024-01-15T04:57:34;99672.59;;;3.15;100.00
46955;BME280;32708;51.212;6.788;2024-01-15T05:00:00;99661.50;;;3.16;100.00
46955;BME280;32708;51.212;6.788;2024-01-15T05:02:26;99658.69;;;3.21;100.00
46955;BME280;32708;51.212;6.788;2024-01-15T05:04:52;99669.31;;;2.99;100.00
46955;BME280;32708;51.212;6.788;2024-01-15T05:07:18;99663.03;;;3.03;100.00
46955;BME280;32708;51.212;6.788;2024-01-15T05:09:45;99653.91;;;3.32;100.00
46955;BME280;32708;51.212;6.788;2024-01-15T05:12:11;99651.63;;;3.39;100.00
46955;BME280;32708;51.212;6.788;2024-01-15T05:14:37;99649.63;;;3.31;100.00
46955;BME280;32708;51.212;6.788;2024-01-15T05:17:03;99653.00;;;3.23;100.00
46955;BME280;32708;51.212;6.788;2024-01-15T05:19:29;99648.69;;;3.08;100.00
46955;BME280;32708;51.212;6.788;2024-01-15T05:21:56;99643.03;;;3.23;100.00
46955;BME280;32708;51.212;6.788;2024-01-15T05:24:22;99651.38;;;3.08;100.00
46955;BME280;32708;51.212;6.788;2024-01-15T05:26:48;99653.16;;;3.13;100.00
46955;BME280;32708;51.212;6.788;2024-01-15T05:29:14;99654.00;;;3.27;100.00
46955;BME280;32708;51.212;6.788;2024-01-15T05:31:40;99655.06;;;3.58;100.00
46955;BME280;32708;51.212;6.788;2024-01-15T05:34:06;99646.25;;;3.39;100.00
46955;BME280;32708;51.212;6.788;2024-01-15T05:36:32;99649.44;;;3.41;100.00
46955;BME280;32708;51.212;6.788;2024-01-15T05:38:59;99644.44;;;3.48;100.00
46955;BME280;32708;51.212;6.788;2024-01-15T05:41:25;99637.72;;;3.32;100.00
46955;BME280;32708;51.212;6.788;2024-01-15T05:43:51;99638.13;;;3.25;100.00
46955;BME280;32708;51.212;6.788;2024-01-15T05:46:18;99640.47;;;3.13;100.00
46955;BME280;32708;51.212;6.788;2024-01-15T05:48:44;99641.44;;;3.22;100.00
46955;BME280;32708;51.212;6.788;2024-01-15T05:51:10;99635.47;;;3.80;100.00
46955;BME280;32708;51.212;6.788;2024-01-15T05:53:37;99627.03;;;3.41;100.00
46955;BME280;32708;51.212;6.788;2024-01-15T05:56:15;99622.75;;;3.53;100.00
46955;BME280;32708;51.212;6.788;2024-01-15T05:58:41;99630.06;;;3.67;100.00
46955;BME280;32708;51.212;6.788;2024-01-15T06:01:08;99622.25;;;3.38;100.00
46955;BME280;32708;51.212;6.788;2024-01-15T06:03:34;99622.56;;;3.36;100.00
46955;BME280;32708;51.212;6.788;2024-01-15T06:06:00;99617.16;;;3.22;100.00
46955;BME280;32708;51.212;6.788;2024-01-15T06:08:26;99620.03;;;3.26;100.00
46955;BME280;32708;51.212;6.788;2024-01-15T06:10:53;99618.75;;;3.37;100.00
46955;BME280;32708;51.212;6.788;2024-01-15T06:13:21;99610.03;;;3.13;100.00
46955;BME280;32708;51.212;6.788;2024-01-15T06:15:48;99611.03;;;3.17;100.00
46955;BME280;32708;51.212;6.788;2024-01-15T06:18:14;99610.97;;;3.22;100.00
46955;BME280;32708;51.212;6.788;2024-01-15T06:20:41;99607.56;;;3.30;100.00
46955;BME280;32708;51.212;6.788;2024-01-15T06:23:07;99604.16;;;3.24;100.00
46955;BME280;32708;51.212;6.788;2024-01-15T06:25:33;99607.19;;;3.50;100.00
46955;BME280;32708;51.212;6.788;2024-01-15T06:28:00;99603.88;;;3.81;100.00
46955;BME280;32708;51.212;6.788;2024-01-15T06:30:26;99592.19;;;3.72;100.00
46955;BME280;32708;51.212;6.788;2024-01-15T06:32:52;99594.66;;;3.27;100.00
46955;BME280;32708;51.212;6.788;2024-01-15T06:35:18;99592.78;;;3.41;100.00
46955;BME280;32708;51.212;6.788;2024-01-15T06:37:44;99604.56;;;3.31;100.00
46955;BME280;32708;51.212;6.788;2024-01-15T06:40:11;99608.31;;;3.03;100.00
46955;BME280;32708;51.212;6.788;2024-01-15T06:42:37;99615.28;;;3.37;100.00
46955;BME280;32708;51.212;6.788;2024-01-15T06:45:04;99610.03;;;3.13;100.00
46955;BME280;32708;51.212;6.788;2024-01-15T06:47:30;99613.41;;;3.04;100.00
46955;BME280;32708;51.212;6.788;2024-01-15T06:49:58;99615.09;;;3.14;100.00
46955;BME280;32708;51.212;6.788;2024-01-15T06:52:25;99619.28;;;3.07;100.00
46955;BME280;32708;51.212;6.788;2024-01-15T06:54:51;99620.63;;;3.09;100.00
46955;BME280;32708;51.212;6.788;2024-01-15T06:57:17;99635.78;;;2.72;100.00
46955;BME280;32708;51.212;6.788;2024-01-15T06:59:45;99646.69;;;2.81;100.00
46955;BME280;32708;51.212;6.788;2024-01-15T07:02:12;99639.38;;;3.00;100.00
46955;BME280;32708;51.212;6.788;2024-01-15T07:04:38;99634.94;;;2.91;100.00
46955;BME280;32708;51.212;6.788;2024-01-15T07:07:04;99641.50;;;2.85;100.00
46955;BME280;32708;51.212;6.788;2024-01-15T07:09:30;99636.91;;;3.18;100.00
46955;BME280;32708;51.212;6.788;2024-01-15T07:11:56;99632.00;;;3.20;100.00
46955;BME280;32708;51.212;6.788;2024-01-15T07:14:24;99631.59;;;3.13;100.00
46955;BME280;32708;51.212;6.788;2024-01-15T07:16:50;99618.88;;;3.46;100.00
46955;BME280;32708;51.212;6.788;2024-01-15T07:19:16;99613.53;;;3.27;100.00
46955;BME280;32708;51.212;6.788;2024-01-15T07:21:42;99615.53;;;3.21;100.00
46955;BME280;32708;51.212;6.788;2024-01-15T07:24:09;99615.03;;;3.19;100.00
46955;BME280;32708;51.212;6.788;2024-01-15T07:26:36;99617.66;;;3.24;100.00
46955;BME280;32708;51.212;6.788;2024-01-15T07:29:02;99622.97;;;3.29;100.00
46955;BME280;32708;51.212;6.788;2024-01-15T07:31:29;99612.03;;;3.21;100.00
46955;BME280;32708;51.212;6.788;2024-01-15T07:33:55;99611.16;;;3.25;100.00
46955;BME280;32708;51.212;6.788;2024-01-15T07:36:21;99611.63;;;3.14;100.00
46955;BME280;32708;51.212;6.788;2024-01-15T07:38:47;99617.69;;;3.06;100.00
46955;BME280;32708;51.212;6.788;2024-01-15T07:41:14;99617.13;;;3.09;100.00
46955;BME280;32708;51.212;6.788;2024-01-15T07:43:40;99617.94;;;3.23;100.00
46955;BME280;32708;51.212;6.788;2024-01-15T07:46:06;99612.16;;;3.16;100.00
46955;BME280;32708;51.212;6.788;2024-01-15T07:48:33;99605.69;;;3.58;100.00
46955;BME280;32708;51.212;6.788;2024-01-15T07:51:00;99601.66;;;3.42;100.00
46955;BME280;32708;51.212;6.788;2024-01-15T07:53:26;99611.84;;;3.31;100.00
46955;BME280;32708;51.212;6.788;2024-01-15T07:55:53;99614.72;;;3.21;100.00
46955;BME280;32708;51.212;6.788;2024-01-15T07:58:20;99615.75;;;3.25;100.00
46955;BME280;32708;51.212;6.788;2024-01-15T08:00:46;99610.03;;;3.13;100.00
46955;BME280;32708;51.212;6.788;2024-01-15T08:03:12;99620.34;;;3.24;100.00
46955;BME280;32708;51.212;6.788;2024-01-15T08:05:38;99615.09;;;3.14;100.00
46955;BME280;32708;51.212;6.788;2024-01-15T08:08:05;99616.78;;;2.96;100.00
46955;BME280;32708;51.212;6.788;2024-01-15T08:10:31;99603.91;;;3.07;100.00
46955;BME280;32708;51.212;6.788;2024-01-15T08:12:57;99615.00;;;3.06;100.00
46955;BME280;32708;51.212;6.788;2024-01-15T08:15:23;99612.28;;;3.38;100.00
46955;BME280;32708;51.212;6.788;2024-01-15T08:17:49;99601.88;;;3.31;100.00
46955;BME280;32708;51.212;6.788;2024-01-15T08:20:16;99599.00;;;2.95;100.00
46955;BME280;32708;51.212;6.788;2024-01-15T08:22:42;99606.75;;;3.16;100.00
46955;BME280;32708;51.212;6.788;2024-01-15T08:25:09;99606.25;;;3.27;100.00
46955;BME280;32708;51.212;6.788;2024-01-15T08:27:35;99603.53;;;3.14;100.00
46955;BME280;32708;51.212;6.788;2024-01-15T08:30:01;99599.72;;;3.01;100.00
46955;BME280;32708;51.212;6.788;2024-01-15T08:32:28;99606.72;;;2.69;100.00
46955;BME280;32708;51.212;6.788;2024-01-15T08:34:55;99615.75;;;2.92;100.00
46955;BME280;32708;51.212;6.788;2024-01-15T08:37:21;99616.44;;;2.84;100.00
46955;BME280;32708;51.212;6.788;2024-01-15T08:39:48;99616.69;;;2.69;100.00
46955;BME280;32708;51.212;6.788;2024-01-15T08:42:14;99613.00;;;2.46;100.00
46955;BME280;32708;51.212;6.788;2024-01-15T08:44:40;99619.34;;;2.36;100.00
46955;BME280;32708;51.212;6.788;2024-01-15T08:47:09;99621.47;;;2.39;100.00
46955;BME280;32708;51.212;6.788;2024-01-15T08:49:35;99623.34;;;2.58;100.00
46955;BME280;32708;51.212;6.788;2024-01-15T08:52:02;99643.50;;;2.41;100.00
46955;BME280;32708;51.212;6.788;2024-01-15T08:54:28;99634.69;;;2.55;100.00
46955;BME280;32708;51.212;6.788;2024-01-15T08:56:54;99636.16;;;2.47;100.00
46955;BME280;32708;51.212;6.788;2024-01-15T08:59:20;99636.91;;;2.53;100.00
46955;BME280;32708;51.212;6.788;2024-01-15T09:01:52;99644.91;;;2.39;100.00
46955;BME280;32708;51.212;6.788;2024-01-15T09:04:18;99653.84;;;2.34;100.00
46955;BME280;32708;51.212;6.788;2024-01-15T09:06:46;99644.59;;;2.59;100.00
46955;BME280;32708;51.212;6.788;2024-01-15T09:09:13;99648.69;;;2.38;100.00
46955;BME280;32708;51.212;6.788;2024-01-15T09:11:42;99657.28;;;2.59;100.00
46955;BME280;32708;51.212;6.788;2024-01-15T09:14:09;99651.88;;;2.21;100.00
46955;BME280;32708;51.212;6.788;2024-01-15T09:16:35;99651.78;;;2.64;100.00
46955;BME280;32708;51.212;6.788;2024-01-15T09:19:02;99656.53;;;2.15;100.00
46955;BME280;32708;51.212;6.788;2024-01-15T09:21:29;99661.16;;;2.53;100.00
46955;BME280;32708;51.212;6.788;2024-01-15T09:23:55;99662.50;;;2.69;100.00
46955;BME280;32708;51.212;6.788;2024-01-15T09:26:25;99661.94;;;2.53;100.00
46955;BME280;32708;51.212;6.788;2024-01-15T09:28:54;99651.69;;;2.36;100.00
46955;BME280;32708;51.212;6.788;2024-01-15T09:31:21;99659.44;;;2.57;100.00
46955;BME280;32708;51.212;6.788;2024-01-15T09:33:54;99661.38;;;2.37;100.00
46955;BME280;32708;51.212;6.788;2024-01-15T09:36:25;99669.22;;;2.53;100.00
46955;BME280;32708;51.212;6.788;2024-01-15T09:38:51;99664.19;;;2.46;100.00
46955;BME280;32708;51.212;6.788;2024-01-15T09:41:18;99663.25;;;2.56;100.00
46955;BME280;32708;51.212;6.788;2024-01-15T09:43:45;99659.88;;;2.83;100.00
46955;BME280;32708;51.212;6.788;2024-01-15T09:46:12;99666.53;;;2.53;100.00
46955;BME280;32708;51.212;6.788;2024-01-15T09:48:39;99667.66;;;2.84;100.00
46955;BME280;32708;51.212;6.788;2024-01-15T09:51:06;99665.13;;;2.74;100.00
46955;BME280;32708;51.212;6.788;2024-01-15T09:53:35;99669.13;;;2.76;100.00
46955;BME280;32708;51.212;6.788;2024-01-15T09:56:05;99669.66;;;2.41;100.00
46955;BME280;32708;51.212;6.788;2024-01-15T09:58:34;99678.19;;;2.67;100.00
46955;BME280;32708;51.212;6.788;2024-01-15T10:01:03;99670.91;;;3.00;100.00
46955;BME280;32708;51.212;6.788;2024-01-15T10:03:29;99675.03;;;2.79;100.00
46955;BME280;32708;51.212;6.788;2024-01-15T10:05:59;99674.22;;;2.78;100.00
46955;BME280;32708;51.212;6.788;2024-01-15T10:08:26;99676.81;;;3.35;100.00
46955;BME280;32708;51.212;6.788;2024-01-15T10:10:52;99665.94;;;3.07;100.00
46955;BME280;32708;51.212;6.788;2024-01-15T10:13:20;99666.75;;;3.08;100.00
46955;BME280;32708;51.212;6.788;2024-01-15T10:15:47;99657.16;;;3.01;100.00
46955;BME280;32708;51.212;6.788;2024-01-15T10:18:13;99663.13;;;2.98;100.00
46955;BME280;32708;51.212;6.788;2024-01-15T10:20:40;99657.41;;;2.86;100.00
46955;BME280;32708;51.212;6.788;2024-01-15T10:23:06;99667.19;;;3.15;100.00
46955;BME280;32708;51.212;6.788;2024-01-15T10:25:32;99652.69;;;3.11;100.00
46955;BME280;32708;51.212;6.788;2024-01-15T10:28:02;99659.31;;;2.99;100.00
46955;BME280;32708;51.212;6.788;2024-01-15T10:30:30;99670.78;;;2.91;100.00
46955;BME280;32708;51.212;6.788;2024-01-15T10:33:04;99667.47;;;3.13;100.00
46955;BME280;32708;51.212;6.788;2024-01-15T10:35:33;99659.50;;;3.22;100.00
46955;BME280;32708;51.212;6.788;2024-01-15T10:38:01;99662.69;;;2.91;100.00
46955;BME280;32708;51.212;6.788;2024-01-15T10:40:29;99656.19;;;2.92;100.00
46955;BME280;32708;51.212;6.788;2024-01-15T10:42:55;99653.56;;;2.73;100.00
46955;BME280;32708;51.212;6.788;2024-01-15T10:45:23;99660.19;;;2.81;100.00
46955;BME280;32708;51.212;6.788;2024-01-15T10:47:50;99661.78;;;3.15;100.00
46955;BME280;32708;51.212;6.788;2024-01-15T10:50:17;99667.16;;;2.82;100.00
46955;BME280;32708;51.212;6.788;2024-01-15T10:52:44;99671.91;;;2.53;100.00
46955;BME280;32708;51.212;6.788;2024-01-15T10:55:10;99670.28;;;2.89;100.00
46955;BME280;32708;51.212;6.788;2024-01-15T10:57:40;99670.38;;;3.17;100.00
46955;BME280;32708;51.212;6.788;2024-01-15T11:00:07;99665.78;;;3.17;100.00
46955;BME280;32708;51.212;6.788;2024-01-15T11:02:36;99663.38;;;3.16;100.00
46955;BME280;32708;51.212;6.788;2024-01-15T11:05:04;99665.31;;;2.96;100.00
46955;BME280;32708;51.212;6.788;2024-01-15T11:07:31;99667.78;;;3.25;100.00
46955;BME280;32708;51.212;6.788;2024-01-15T11:09:58;99653.84;;;3.37;100.00
46955;BME280;32708;51.212;6.788;2024-01-15T11:12:27;99650.91;;;3.34;100.00
46955;BME280;32708;51.212;6.788;2024-01-15T11:15:03;99664.06;;;3.21;100.00
46955;BME280;32708;51.212;6.788;2024-01-15T11:18:01;99654.53;;;3.43;100.00
46955;BME280;32708;51.212;6.788;2024-01-15T11:20:29;99655.78;;;3.18;100.00
46955;BME280;32708;51.212;6.788;2024-01-15T11:22:56;99657.78;;;3.12;100.00
46955;BME280;32708;51.212;6.788;2024-01-15T11:25:23;99655.81;;;3.31;100.00
46955;BME280;32708;51.212;6.788;2024-01-15T11:27:52;99648.06;;;3.44;100.00
46955;BME280;32708;51.212;6.788;2024-01-15T11:30:20;99648.88;;;3.58;100.00
46955;BME280;32708;51.212;6.788;2024-01-15T11:32:51;99643.66;;;3.75;100.00
46955;BME280;32708;51.212;6.788;2024-01-15T11:35:17;99643.66;;;3.75;100.00
46955;BME280;32708;51.212;6.788;2024-01-15T11:40:38;99632.34;;;4.01;100.00
46955;BME280;32708;51.212;6.788;2024-01-15T11:43:06;99631.97;;;3.52;100.00
46955;BME280;32708;51.212;6.788;2024-01-15T11:45:33;99632.69;;;3.58;100.00
46955;BME280;32708;51.212;6.788;2024-01-15T11:48:17;99636.63;;;3.33;100.00
46955;BME280;32708;51.212;6.788;2024-01-15T11:50:50;99624.06;;;3.83;100.00
46955;BME280;32708;51.212;6.788;2024-01-15T11:53:27;99622.97;;;3.71;100.00
46955;BME280;32708;51.212;6.788;2024-01-15T11:56:01;99619.84;;;4.05;100.00
46955;BME280;32708;51.212;6.788;2024-01-15T11:58:29;99616.47;;;3.72;100.00
46955;BME280;32708;51.212;6.788;2024-01-15T12:00:55;99623.63;;;4.18;100.00
46955;BME280;32708;51.212;6.788;2024-01-15T12:03:23;99618.56;;;3.75;100.00
46955;BME280;32708;51.212;6.788;2024-01-15T12:05:52;99623.66;;;3.90;100.00
46955;BME280;32708;51.212;6.788;2024-01-15T12:08:23;99621.75;;;3.91;100.00
46955;BME280;32708;51.212;6.788;2024-01-15T12:10:49;99619.25;;;4.44;100.00
46955;BME280;32708;51.212;6.788;2024-01-15T12:13:16;99610.03;;;4.09;100.00
46955;BME280;32708;51.212;6.788;2024-01-15T12:15:46;99613.16;;;3.75;100.00
46955;BME280;32708;51.212;6.788;2024-01-15T12:18:18;99631.19;;;3.66;100.00
46955;BME280;32708;51.212;6.788;2024-01-15T12:20:45;99635.16;;;3.82;100.00
46955;BME280;32708;51.212;6.788;2024-01-15T12:23:15;99626.97;;;4.01;100.00
46955;BME280;32708;51.212;6.788;2024-01-15T12:25:43;99620.97;;;3.63;100.00
46955;BME280;32708;51.212;6.788;2024-01-15T12:28:09;99628.97;;;3.54;100.00
46955;BME280;32708;51.212;6.788;2024-01-15T12:30:36;99618.66;;;3.97;100.00
46955;BME280;32708;51.212;6.788;2024-01-15T12:33:07;99624.47;;;3.77;100.00
46955;BME280;32708;51.212;6.788;2024-01-15T12:35:35;99624.38;;;3.54;100.00
46955;BME280;32708;51.212;6.788;2024-01-15T12:38:02;99633.41;;;4.13;100.00
46955;BME280;32708;51.212;6.788;2024-01-15T12:40:28;99628.66;;;3.97;100.00
46955;BME280;32708;51.212;6.788;2024-01-15T12:42:55;99632.94;;;3.84;100.00
46955;BME280;32708;51.212;6.788;2024-01-15T12:45:22;99630.25;;;3.84;100.00
46955;BME280;32708;51.212;6.788;2024-01-15T12:47:49;99626.31;;;4.18;100.00
46955;BME280;32708;51.212;6.788;2024-01-15T12:50:17;99634.75;;;3.89;100.00
46955;BME280;32708;51.212;6.788;2024-01-15T12:52:44;99645.19;;;4.31;100.00
46955;BME280;32708;51.212;6.788;2024-01-15T12:55:10;99637.66;;;3.78;100.00
46955;BME280;32708;51.212;6.788;2024-01-15T12:57:37;99645.25;;;4.04;100.00
46955;BME280;32708;51.212;6.788;2024-01-15T13:00:05;99646.66;;;3.74;100.00
46955;BME280;32708;51.212;6.788;2024-01-15T13:02:39;99654.25;;;3.99;100.00